sensor_id;sensor_type;location;lat;lon;timestamp;temperature;humidity
21047;DHT22;10682;50.874;3.656;2024-01-30T00:00:41;11.10;99.90
21047;DHT22;10682;50.874;3.656;2024-01-30T00:03:08;11.10;99.90
21047;DHT22;10682;50.874;3.656;2024-01-30T00:05:46;11.10;99.90
21047;DHT22;10682;50.874;3.656;2024-01-30T00:08:16;11.10;99.90
21047;DHT22;10682;50.874;3.656;2024-01-30T00:10:48;11.10;99.90
21047;DHT22;10682;50.874;3.656;2024-01-30T00:13:16;11.10;99.90
21047;DHT22;10682;50.874;3.656;2024-01-30T00:15:46;11.10;99.90
21047;DHT22;10682;50.874;3.656;2024-01-30T00:18:14;11.10;99.90
21047;DHT22;10682;50.874;3.656;2024-01-30T00:20:48;11.10;99.90
21047;DHT22;10682;50.874;3.656;2024-01-30T00:23:15;11.10;99.90
21047;DHT22;10682;50.874;3.656;2024-01-30T00:25:46;11.20;99.90
21047;DHT22;10682;50.874;3.656;2024-01-30T00:28:13;11.20;99.90
21047;DHT22;10682;50.874;3.656;2024-01-30T00:30:45;11.20;99.90
21047;DHT22;10682;50.874;3.656;2024-01-30T00:33:12;11.20;99.90
21047;DHT22;10682;50.874;3.656;2024-01-30T00:35:44;11.30;99.90
21047;DHT22;10682;50.874;3.656;2024-01-30T00:38:14;11.20;99.90
21047;DHT22;10682;50.874;3.656;2024-01-30T00:40:43;11.30;99.90
21047;DHT22;10682;50.874;3.656;2024-01-30T00:43:16;11.30;99.90
21047;DHT22;10682;50.874;3.656;2024-01-30T00:45:59;11.30;99.90
21047;DHT22;10682;50.874;3.656;2024-01-30T00:48:32;11.30;99.90
21047;DHT22;10682;50.874;3.656;2024-01-30T00:51:07;11.30;99.90
21047;DHT22;10682;50.874;3.656;2024-01-30T00:53:36;11.30;99.90
21047;DHT22;10682;50.874;3.656;2024-01-30T00:56:03;11.20;99.90
21047;DHT22;10682;50.874;3.656;2024-01-30T00:58:30;11.20;99.90
21047;DHT22;10682;50.874;3.656;2024-01-30T01:00:58;11.20;99.90
21047;DHT22;10682;50.874;3.656;2024-01-30T01:03:25;11.10;99.90
21047;DHT22;10682;50.874;3.656;2024-01-30T01:05:55;11.10;99.90
21047;DHT22;10682;50.874;3.656;2024-01-30T01:08:22;11.10;99.90
21047;DHT22;10682;50.874;3.656;2024-01-30T01:10:52;11.10;99.90
21047;DHT22;10682;50.874;3.656;2024-01-30T01:13:19;11.20;99.90
21047;DHT22;10682;50.874;3.656;2024-01-30T01:15:47;11.10;99.90
21047;DHT22;10682;50.874;3.656;2024-01-30T01:18:16;11.10;99.90
21047;DHT22;10682;50.874;3.656;2024-01-30T01:21:09;11.20;99.90
21047;DHT22;10682;50.874;3.656;2024-01-30T01:23:36;11.10;99.90
21047;DHT22;10682;50.874;3.656;2024-01-30T01:26:28;11.20;99.90
21047;DHT22;10682;50.874;3.656;2024-01-30T01:28:55;11.20;99.90
21047;DHT22;10682;50.874;3.656;2024-01-30T01:31:22;11.20;99.90
21047;DHT22;10682;50.874;3.656;2024-01-30T01:33:51;11.20;99.90
21047;DHT22;10682;50.874;3.656;2024-01-30T01:36:20;11.20;99.90
21047;DHT22;10682;50.874;3.656;2024-01-30T01:39:02;11.20;99.90
21047;DHT22;10682;50.874;3.656;2024-01-30T01:41:41;11.20;99.90
21047;DHT22;10682;50.874;3.656;2024-01-30T01:44:14;11.20;99.90
21047;DHT22;10682;50.874;3.656;2024-01-30T01:46:43;11.20;99.90
21047;DHT22;10682;50.874;3.656;2024-01-30T01:49:13;11.20;99.90
21047;DHT22;10682;50.874;3.656;2024-01-30T01:51:55;11.20;99.90
21047;DHT22;10682;50.874;3.656;2024-01-30T01:54:29;11.20;99.90
21047;DHT22;10682;50.874;3.656;2024-01-30T01:56:56;11.30;99.90
21047;DHT22;10682;50.874;3.656;2024-01-30T01:59:24;11.30;99.90
21047;DHT22;10682;50.874;3.656;2024-01-30T02:01:52;11.30;99.90
21047;DHT22;10682;50.874;3.656;2024-01-30T02:04:21;11.30;99.90
21047;DHT22;10682;50.874;3.656;2024-01-30T02:06:50;11.30;99.90
21047;DHT22;10682;50.874;3.656;2024-01-30T02:09:18;11.30;99.90
21047;DHT22;10682;50.874;3.656;2024-01-30T02:11:45;11.30;99.90
21047;DHT22;10682;50.874;3.656;2024-01-30T02:14:14;11.30;99.90
21047;DHT22;10682;50.874;3.656;2024-01-30T02:16:41;11.30;99.90
21047;DHT22;10682;50.874;3.656;2024-01-30T02:19:08;11.30;99.90
21047;DHT22;10682;50.874;3.656;2024-01-30T02:21:36;11.30;99.90
21047;DHT22;10682;50.874;3.656;2024-01-30T02:24:03;11.30;99.90
21047;DHT22;10682;50.874;3.656;2024-01-30T02:26:31;11.20;99.90
21047;DHT22;10682;50.874;3.656;2024-01-30T02:28:58;11.20;99.90
21047;DHT22;10682;50.874;3.656;2024-01-30T02:31:26;11.30;99.90
21047;DHT22;10682;50.874;3.656;2024-01-30T02:33:53;11.20;99.90
21047;DHT22;10682;50.874;3.656;2024-01-30T02:36:20;11.20;99.90
21047;DHT22;10682;50.874;3.656;2024-01-30T02:38:48;11.20;99.90
21047;DHT22;10682;50.874;3.656;2024-01-30T02:41:17;11.20;99.90
21047;DHT22;10682;50.874;3.656;2024-01-30T02:43:45;11.20;99.90
21047;DHT22;10682;50.874;3.656;2024-01-30T02:46:12;11.20;99.90
21047;DHT22;10682;50.874;3.656;2024-01-30T02:48:39;11.20;99.90
21047;DHT22;10682;50.874;3.656;2024-01-30T02:51:11;11.20;99.90
21047;DHT22;10682;50.874;3.656;2024-01-30T02:53:38;11.10;99.90
21047;DHT22;10682;50.874;3.656;2024-01-30T02:56:05;11.10;99.90
21047;DHT22;10682;50.874;3.656;2024-01-30T02:58:37;11.10;99.90
21047;DHT22;10682;50.874;3.656;2024-01-30T03:01:06;11.20;99.90
21047;DHT22;10682;50.874;3.656;2024-01-30T03:03:33;11.20;99.90
21047;DHT22;10682;50.874;3.656;2024-01-30T03:09:17;11.10;99.90
21047;DHT22;10682;50.874;3.656;2024-01-30T03:14:53;11.10;99.90
21047;DHT22;10682;50.874;3.656;2024-01-30T03:17:20;11.20;99.90
21047;DHT22;10682;50.874;3.656;2024-01-30T03:19:47;11.20;99.90
21047;DHT22;10682;50.874;3.656;2024-01-30T03:22:16;11.20;99.90
21047;DHT22;10682;50.874;3.656;2024-01-30T03:24:46;11.20;99.90
21047;DHT22;10682;50.874;3.656;2024-01-30T03:27:14;11.20;99.90
21047;DHT22;10682;50.874;3.656;2024-01-30T03:29:46;11.20;99.90
21047;DHT22;10682;50.874;3.656;2024-01-30T03:32:13;11.20;99.90
21047;DHT22;10682;50.874;3.656;2024-01-30T03:34:41;11.20;99.90
21047;DHT22;10682;50.874;3.656;2024-01-30T03:37:10;11.20;99.90
21047;DHT22;10682;50.874;3.656;2024-01-30T03:39:37;11.10;99.90
21047;DHT22;10682;50.874;3.656;2024-01-30T03:42:04;11.00;99.90
21047;DHT22;10682;50.874;3.656;2024-01-30T03:44:37;11.10;99.90
21047;DHT22;10682;50.874;3.656;2024-01-30T03:47:06;11.00;99.90
21047;DHT22;10682;50.874;3.656;2024-01-30T03:49:43;11.00;99.90
21047;DHT22;10682;50.874;3.656;2024-01-30T03:52:10;11.00;99.90
21047;DHT22;10682;50.874;3.656;2024-01-30T03:54:37;10.90;99.90
21047;DHT22;10682;50.874;3.656;2024-01-30T03:57:05;10.90;99.90
21047;DHT22;10682;50.874;3.656;2024-01-30T03:59:32;11.00;99.90
21047;DHT22;10682;50.874;3.656;2024-01-30T04:01:59;10.90;99.90
21047;DHT22;10682;50.874;3.656;2024-01-30T04:04:27;10.90;99.90
21047;DHT22;10682;50.874;3.656;2024-01-30T04:06:54;10.90;99.90
21047;DHT22;10682;50.874;3.656;2024-01-30T04:09:21;10.90;99.90
21047;DHT22;10682;50.874;3.656;2024-01-30T04:11:49;10.90;99.90
21047;DHT22;10682;50.874;3.656;2024-01-30T04:14:19;10.90;99.90
21047;DHT22;10682;50.874;3.656;2024-01-30T04:16:47;10.80;99.90
21047;DHT22;10682;50.874;3.656;2024-01-30T04:19:15;10.80;99.90
21047;DHT22;10682;50.874;3.656;2024-01-30T04:21:43;10.80;99.90
21047;DHT22;10682;50.874;3.656;2024-01-30T04:24:11;10.90;99.90
21047;DHT22;10682;50.874;3.656;2024-01-30T04:26:39;10.90;99.90
21047;DHT22;10682;50.874;3.656;2024-01-30T04:29:06;10.90;99.90
21047;DHT22;10682;50.874;3.656;2024-01-30T04:31:36;10.90;99.90
21047;DHT22;10682;50.874;3.656;2024-01-30T04:34:07;10.90;99.90
21047;DHT22;10682;50.874;3.656;2024-01-30T04:36:35;10.90;99.90
21047;DHT22;10682;50.874;3.656;2024-01-30T04:39:04;11.00;99.90
21047;DHT22;10682;50.874;3.656;2024-01-30T04:41:33;11.00;99.90
21047;DHT22;10682;50.874;3.656;2024-01-30T04:44:00;11.00;99.90
21047;DHT22;10682;50.874;3.656;2024-01-30T04:46:32;11.00;99.90
21047;DHT22;10682;50.874;3.656;2024-01-30T04:49:01;11.00;99.90
21047;DHT22;10682;50.874;3.656;2024-01-30T04:54:35;11.00;99.90
21047;DHT22;10682;50.874;3.656;2024-01-30T04:57:20;11.00;99.90
21047;DHT22;10682;50.874;3.656;2024-01-30T04:59:48;11.00;99.90
21047;DHT22;10682;50.874;3.656;2024-01-30T05:02:16;11.00;99.90
21047;DHT22;10682;50.874;3.656;2024-01-30T05:04:43;10.90;99.90
21047;DHT22;10682;50.874;3.656;2024-01-30T05:07:10;10.90;99.90
21047;DHT22;10682;50.874;3.656;2024-01-30T05:09:38;10.90;99.90
21047;DHT22;10682;50.874;3.656;2024-01-30T05:12:07;10.80;99.90
21047;DHT22;10682;50.874;3.656;2024-01-30T05:14:51;10.80;99.90
21047;DHT22;10682;50.874;3.656;2024-01-30T05:17:50;10.80;99.90
21047;DHT22;10682;50.874;3.656;2024-01-30T05:20:28;10.80;99.90
21047;DHT22;10682;50.874;3.656;2024-01-30T05:22:55;10.80;99.90
21047;DHT22;10682;50.874;3.656;2024-01-30T05:25:22;10.90;99.90
21047;DHT22;10682;50.874;3.656;2024-01-30T05:27:50;10.90;99.90
21047;DHT22;10682;50.874;3.656;2024-01-30T05:30:17;10.80;99.90
21047;DHT22;10682;50.874;3.656;2024-01-30T05:32:44;10.80;99.90
21047;DHT22;10682;50.874;3.656;2024-01-30T05:35:12;10.80;99.90
21047;DHT22;10682;50.874;3.656;2024-01-30T05:37:39;10.80;99.90
21047;DHT22;10682;50.874;3.656;2024-01-30T05:40:06;10.80;99.90
21047;DHT22;10682;50.874;3.656;2024-01-30T05:42:34;10.80;99.90
21047;DHT22;10682;50.874;3.656;2024-01-30T05:45:14;10.80;99.90
21047;DHT22;10682;50.874;3.656;2024-01-30T05:48:03;10.80;99.90
21047;DHT22;10682;50.874;3.656;2024-01-30T05:50:37;10.90;99.90
21047;DHT22;10682;50.874;3.656;2024-01-30T05:53:11;10.90;99.90
21047;DHT22;10682;50.874;3.656;2024-01-30T05:55:41;10.90;99.90
21047;DHT22;10682;50.874;3.656;2024-01-30T05:58:09;10.90;99.90
21047;DHT22;10682;50.874;3.656;2024-01-30T06:00:43;10.90;99.90
21047;DHT22;10682;50.874;3.656;2024-01-30T06:03:22;11.00;99.90
21047;DHT22;10682;50.874;3.656;2024-01-30T06:05:49;10.90;99.90
21047;DHT22;10682;50.874;3.656;2024-01-30T06:08:24;11.00;99.90
21047;DHT22;10682;50.874;3.656;2024-01-30T06:10:51;11.00;99.90
21047;DHT22;10682;50.874;3.656;2024-01-30T06:13:19;11.10;99.90
21047;DHT22;10682;50.874;3.656;2024-01-30T06:15:46;11.10;99.90
21047;DHT22;10682;50.874;3.656;2024-01-30T06:18:13;11.10;99.90
21047;DHT22;10682;50.874;3.656;2024-01-30T06:20:40;11.10;99.90
21047;DHT22;10682;50.874;3.656;2024-01-30T06:23:07;11.20;99.90
21047;DHT22;10682;50.874;3.656;2024-01-30T06:25:35;11.20;99.90
21047;DHT22;10682;50.874;3.656;2024-01-30T06:28:02;11.10;99.90
21047;DHT22;10682;50.874;3.656;2024-01-30T06:30:29;11.10;99.90
21047;DHT22;10682;50.874;3.656;2024-01-30T06:32:57;11.10;99.90
21047;DHT22;10682;50.874;3.656;2024-01-30T06:35:26;11.10;99.90
21047;DHT22;10682;50.874;3.656;2024-01-30T06:41:16;11.20;99.90
21047;DHT22;10682;50.874;3.656;2024-01-30T06:43:56;11.20;99.90
21047;DHT22;10682;50.874;3.656;2024-01-30T06:46:23;11.20;99.90
21047;DHT22;10682;50.874;3.656;2024-01-30T06:48:50;11.20;99.90
21047;DHT22;10682;50.874;3.656;2024-01-30T06:51:17;11.20;99.90
21047;DHT22;10682;50.874;3.656;2024-01-30T06:53:45;11.20;99.90
21047;DHT22;10682;50.874;3.656;2024-01-30T06:56:12;11.20;99.90
21047;DHT22;10682;50.874;3.656;2024-01-30T06:58:39;11.20;99.90
21047;DHT22;10682;50.874;3.656;2024-01-30T07:01:17;11.20;99.90
21047;DHT22;10682;50.874;3.656;2024-01-30T07:03:52;11.20;99.90
21047;DHT22;10682;50.874;3.656;2024-01-30T07:06:20;11.20;99.90
21047;DHT22;10682;50.874;3.656;2024-01-30T07:08:48;11.30;99.90
21047;DHT22;10682;50.874;3.656;2024-01-30T07:11:20;11.30;99.90
21047;DHT22;10682;50.874;3.656;2024-01-30T07:13:50;11.40;99.90
21047;DHT22;10682;50.874;3.656;2024-01-30T07:16:17;11.30;99.90
21047;DHT22;10682;50.874;3.656;2024-01-30T07:18:45;11.40;99.90
21047;DHT22;10682;50.874;3.656;2024-01-30T07:21:12;11.40;99.90
21047;DHT22;10682;50.874;3.656;2024-01-30T07:23:39;11.40;99.90
21047;DHT22;10682;50.874;3.656;2024-01-30T07:26:06;11.40;99.90
21047;DHT22;10682;50.874;3.656;2024-01-30T07:28:33;11.30;99.90
21047;DHT22;10682;50.874;3.656;2024-01-30T07:31:01;11.30;99.90
21047;DHT22;10682;50.874;3.656;2024-01-30T07:33:28;11.40;99.90
21047;DHT22;10682;50.874;3.656;2024-01-30T07:35:55;11.40;99.90
21047;DHT22;10682;50.874;3.656;2024-01-30T07:38:25;11.50;99.90
21047;DHT22;10682;50.874;3.656;2024-01-30T07:40:52;11.40;99.90
21047;DHT22;10682;50.874;3.656;2024-01-30T07:43:19;11.40;99.90
21047;DHT22;10682;50.874;3.656;2024-01-30T07:45:47;11.40;99.90
21047;DHT22;10682;50.874;3.656;2024-01-30T07:48:14;11.40;99.90
21047;DHT22;10682;50.874;3.656;2024-01-30T07:50:41;11.40;99.90
21047;DHT22;10682;50.874;3.656;2024-01-30T07:53:10;11.30;99.90
21047;DHT22;10682;50.874;3.656;2024-01-30T07:55:37;11.30;99.90
21047;DHT22;10682;50.874;3.656;2024-01-30T07:58:04;11.30;99.90
21047;DHT22;10682;50.874;3.656;2024-01-30T08:00:31;11.30;99.90
21047;DHT22;10682;50.874;3.656;2024-01-30T08:02:59;11.40;99.90
21047;DHT22;10682;50.874;3.656;2024-01-30T08:05:26;11.40;99.90
21047;DHT22;10682;50.874;3.656;2024-01-30T08:07:53;11.40;99.90
21047;DHT22;10682;50.874;3.656;2024-01-30T08:10:21;11.40;99.90
21047;DHT22;10682;50.874;3.656;2024-01-30T08:12:48;11.40;99.90
21047;DHT22;10682;50.874;3.656;2024-01-30T08:15:16;11.40;99.90
21047;DHT22;10682;50.874;3.656;2024-01-30T08:17:43;11.50;99.90
21047;DHT22;10682;50.874;3.656;2024-01-30T08:23:41;11.50;99.90
21047;DHT22;10682;50.874;3.656;2024-01-30T08:26:37;11.40;99.90
21047;DHT22;10682;50.874;3.656;2024-01-30T08:29:05;11.40;99.90
21047;DHT22;10682;50.874;3.656;2024-01-30T08:31:32;11.40;99.90
21047;DHT22;10682;50.874;3.656;2024-01-30T08:34:00;11.30;99.90
21047;DHT22;10682;50.874;3.656;2024-01-30T08:36:27;11.30;99.90
21047;DHT22;10682;50.874;3.656;2024-01-30T08:38:54;11.20;99.90
21047;DHT22;10682;50.874;3.656;2024-01-30T08:41:27;11.20;99.90
21047;DHT22;10682;50.874;3.656;2024-01-30T08:43:54;11.20;99.90
21047;DHT22;10682;50.874;3.656;2024-01-30T08:46:21;11.20;99.90
21047;DHT22;10682;50.874;3.656;2024-01-30T08:48:56;11.20;99.90
21047;DHT22;10682;50.874;3.656;2024-01-30T08:51:25;11.20;99.90
21047;DHT22;10682;50.874;3.656;2024-01-30T08:53:53;11.20;99.90
21047;DHT22;10682;50.874;3.656;2024-01-30T08:56:20;11.10;99.90
21047;DHT22;10682;50.874;3.656;2024-01-30T08:58:47;11.20;99.90
21047;DHT22;10682;50.874;3.656;2024-01-30T09:01:15;11.10;99.90
21047;DHT22;10682;50.874;3.656;2024-01-30T09:03:42;11.20;99.90
21047;DHT22;10682;50.874;3.656;2024-01-30T09:06:12;11.20;99.90
21047;DHT22;10682;50.874;3.656;2024-01-30T09:08:39;11.20;99.90
21047;DHT22;10682;50.874;3.656;2024-01-30T09:11:11;11.30;99.90
21047;DHT22;10682;50.874;3.656;2024-01-30T09:13:39;11.20;99.90
21047;DHT22;10682;50.874;3.656;2024-01-30T09:16:07;11.30;99.90
21047;DHT22;10682;50.874;3.656;2024-01-30T09:18:34;11.30;99.90
21047;DHT22;10682;50.874;3.656;2024-01-30T09:21:01;11.30;99.90
21047;DHT22;10682;50.874;3.656;2024-01-30T09:23:28;11.30;99.90
21047;DHT22;10682;50.874;3.656;2024-01-30T09:25:55;11.30;99.90
21047;DHT22;10682;50.874;3.656;2024-01-30T09:28:23;11.30;99.90
21047;DHT22;10682;50.874;3.656;2024-01-30T09:30:53;11.30;99.90
21047;DHT22;10682;50.874;3.656;2024-01-30T09:33:20;11.30;99.90
21047;DHT22;10682;50.874;3.656;2024-01-30T09:35:47;11.30;99.90
21047;DHT22;10682;50.874;3.656;2024-01-30T09:38:14;11.20;99.90
21047;DHT22;10682;50.874;3.656;2024-01-30T09:40:42;11.20;99.90
21047;DHT22;10682;50.874;3.656;2024-01-30T09:43:14;11.10;99.90
21047;DHT22;10682;50.874;3.656;2024-01-30T09:45:45;11.10;99.90
21047;DHT22;10682;50.874;3.656;2024-01-30T09:48:14;11.10;99.90
21047;DHT22;10682;50.874;3.656;2024-01-30T09:50:42;11.10;99.90
21047;DHT22;10682;50.874;3.656;2024-01-30T09:53:13;11.00;99.90
21047;DHT22;10682;50.874;3.656;2024-01-30T09:55:47;11.00;99.90
21047;DHT22;10682;50.874;3.656;2024-01-30T09:58:16;11.00;99.90
21047;DHT22;10682;50.874;3.656;2024-01-30T10:00:44;10.90;99.90
21047;DHT22;10682;50.874;3.656;2024-01-30T10:06:31;10.80;99.90
21047;DHT22;10682;50.874;3.656;2024-01-30T10:09:08;10.70;99.90
21047;DHT22;10682;50.874;3.656;2024-01-30T10:11:36;10.60;99.90
21047;DHT22;10682;50.874;3.656;2024-01-30T10:14:03;10.60;99.90
21047;DHT22;10682;50.874;3.656;2024-01-30T10:16:30;10.60;99.90
21047;DHT22;10682;50.874;3.656;2024-01-30T10:18:58;10.70;99.90
21047;DHT22;10682;50.874;3.656;2024-01-30T10:21:25;10.70;99.90
21047;DHT22;10682;50.874;3.656;2024-01-30T10:23:52;10.70;99.90
21047;DHT22;10682;50.874;3.656;2024-01-30T10:26:20;10.80;99.90
21047;DHT22;10682;50.874;3.656;2024-01-30T10:28:48;10.70;99.90
21047;DHT22;10682;50.874;3.656;2024-01-30T10:31:18;10.70;99.90
21047;DHT22;10682;50.874;3.656;2024-01-30T10:33:48;10.70;99.90
21047;DHT22;10682;50.874;3.656;2024-01-30T10:36:17;10.70;99.90
21047;DHT22;10682;50.874;3.656;2024-01-30T10:38:47;10.80;99.90
21047;DHT22;10682;50.874;3.656;2024-01-30T10:41:20;10.80;99.90
21047;DHT22;10682;50.874;3.656;2024-01-30T10:44:08;11.00;99.90
21047;DHT22;10682;50.874;3.656;2024-01-30T10:46:38;11.00;99.90
21047;DHT22;10682;50.874;3.656;2024-01-30T10:49:06;11.00;99.90
21047;DHT22;10682;50.874;3.656;2024-01-30T10:51:34;11.10;99.90
21047;DHT22;10682;50.874;3.656;2024-01-30T10:54:03;11.00;99.90
21047;DHT22;10682;50.874;3.656;2024-01-30T10:56:32;11.00;99.90
21047;DHT22;10682;50.874;3.656;2024-01-30T10:59:00;11.10;99.90
21047;DHT22;10682;50.874;3.656;2024-01-30T11:01:28;11.10;99.90
21047;DHT22;10682;50.874;3.656;2024-01-30T11:03:55;11.20;99.90
21047;DHT22;10682;50.874;3.656;2024-01-30T11:06:25;11.20;99.90
21047;DHT22;10682;50.874;3.656;2024-01-30T11:09:09;11.20;99.90
21047;DHT22;10682;50.874;3.656;2024-01-30T11:11:58;11.20;99.90
21047;DHT22;10682;50.874;3.656;2024-01-30T11:14:31;11.10;99.90
21047;DHT22;10682;50.874;3.656;2024-01-30T11:16:59;11.10;99.90
21047;DHT22;10682;50.874;3.656;2024-01-30T11:19:27;11.10;99.90
21047;DHT22;10682;50.874;3.656;2024-01-30T11:21:57;11.20;99.90
21047;DHT22;10682;50.874;3.656;2024-01-30T11:24:25;11.20;99.90
21047;DHT22;10682;50.874;3.656;2024-01-30T11:26:57;11.40;99.90
21047;DHT22;10682;50.874;3.656;2024-01-30T11:29:25;11.40;99.90
21047;DHT22;10682;50.874;3.656;2024-01-30T11:31:58;11.30;99.90
21047;DHT22;10682;50.874;3.656;2024-01-30T11:34:26;11.30;99.90
21047;DHT22;10682;50.874;3.656;2024-01-30T11:36:57;11.30;99.90
21047;DHT22;10682;50.874;3.656;2024-01-30T11:39:26;11.30;99.90
21047;DHT22;10682;50.874;3.656;2024-01-30T11:41:54;11.20;99.90
21047;DHT22;10682;50.874;3.656;2024-01-30T11:47:30;11.40;99.90
21047;DHT22;10682;50.874;3.656;2024-01-30T11:53:09;11.20;99.90
21047;DHT22;10682;50.874;3.656;2024-01-30T11:55:36;11.30;99.90
21047;DHT22;10682;50.874;3.656;2024-01-30T11:58:04;11.20;99.90
21047;DHT22;10682;50.874;3.656;2024-01-30T12:00:32;11.10;99.90
21047;DHT22;10682;50.874;3.656;2024-01-30T12:03:01;11.20;99.90
21047;DHT22;10682;50.874;3.656;2024-01-30T12:05:30;11.30;99.90
21047;DHT22;10682;50.874;3.656;2024-01-30T12:07:58;11.30;99.90
21047;DHT22;10682;50.874;3.656;2024-01-30T12:10:27;11.40;99.90
21047;DHT22;10682;50.874;3.656;2024-01-30T12:12:55;11.30;99.90
21047;DHT22;10682;50.874;3.656;2024-01-30T12:15:22;11.10;99.90
21047;DHT22;10682;50.874;3.656;2024-01-30T12:17:51;11.10;99.90
21047;DHT22;10682;50.874;3.656;2024-01-30T12:20:36;10.90;99.90
21047;DHT22;10682;50.874;3.656;2024-01-30T12:23:04;10.70;99.90
21047;DHT22;10682;50.874;3.656;2024-01-30T12:25:31;10.70;99.90
21047;DHT22;10682;50.874;3.656;2024-01-30T12:27:58;10.60;99.90
21047;DHT22;10682;50.874;3.656;2024-01-30T12:30:39;10.60;99.90
21047;DHT22;10682;50.874;3.656;2024-01-30T12:33:06;10.60;99.90
21047;DHT22;10682;50.874;3.656;2024-01-30T12:35:35;10.50;99.90
21047;DHT22;10682;50.874;3.656;2024-01-30T12:38:11;10.50;99.90
21047;DHT22;10682;50.874;3.656;2024-01-30T12:40:39;10.50;99.90
21047;DHT22;10682;50.874;3.656;2024-01-30T12:43:08;10.50;99.90
21047;DHT22;10682;50.874;3.656;2024-01-30T12:45:36;10.50;99.90
21047;DHT22;10682;50.874;3.656;2024-01-30T12:48:03;10.50;99.90
21047;DHT22;10682;50.874;3.656;2024-01-30T12:50:31;10.40;99.90
21047;DHT22;10682;50.874;3.656;2024-01-30T12:52:58;10.50;99.90
21047;DHT22;10682;50.874;3.656;2024-01-30T12:55:25;10.50;99.90
21047;DHT22;10682;50.874;3.656;2024-01-30T12:57:55;10.50;99.90
21047;DHT22;10682;50.874;3.656;2024-01-30T13:00:22;10.50;99.90
21047;DHT22;10682;50.874;3.656;2024-01-30T13:02:50;10.40;99.90
21047;DHT22;10682;50.874;3.656;2024-01-30T13:05:17;10.40;99.90
21047;DHT22;10682;50.874;3.656;2024-01-30T13:07:44;10.30;99.90
21047;DHT22;10682;50.874;3.656;2024-01-30T13:10:11;10.30;99.90
21047;DHT22;10682;50.874;3.656;2024-01-30T13:12:39;10.20;99.90
21047;DHT22;10682;50.874;3.656;2024-01-30T13:15:06;10.20;99.90
21047;DHT22;10682;50.874;3.656;2024-01-30T13:17:34;10.20;99.90
21047;DHT22;10682;50.874;3.656;2024-01-30T13:20:03;10.10;99.90
21047;DHT22;10682;50.874;3.656;2024-01-30T13:22:37;10.10;99.90
21047;DHT22;10682;50.874;3.656;2024-01-30T13:25:06;10.10;99.90
21047;DHT22;10682;50.874;3.656;2024-01-30T13:27:50;10.10;99.90
21047;DHT22;10682;50.874;3.656;2024-01-30T13:30:18;10.20;99.90
21047;DHT22;10682;50.874;3.656;2024-01-30T13:32:54;10.20;99.90
21047;DHT22;10682;50.874;3.656;2024-01-30T13:35:21;10.20;99.90
21047;DHT22;10682;50.874;3.656;2024-01-30T13:37:48;10.20;99.90
21047;DHT22;10682;50.874;3.656;2024-01-30T13:40:15;10.20;99.90
21047;DHT22;10682;50.874;3.656;2024-01-30T13:42:43;10.20;99.90
21047;DHT22;10682;50.874;3.656;2024-01-30T13:45:10;10.20;99.90
21047;DHT22;10682;50.874;3.656;2024-01-30T13:47:38;10.20;99.90
21047;DHT22;10682;50.874;3.656;2024-01-30T13:50:06;10.10;99.90
21047;DHT22;10682;50.874;3.656;2024-01-30T13:52:33;10.10;99.90
21047;DHT22;10682;50.874;3.656;2024-01-30T13:55:10;10.10;99.90
21047;DHT22;10682;50.874;3.656;2024-01-30T13:57:37;10.10;99.90
21047;DHT22;10682;50.874;3.656;2024-01-30T14:00:05;10.10;99.90
21047;DHT22;10682;50.874;3.656;2024-01-30T14:02:33;10.10;99.90
21047;DHT22;10682;50.874;3.656;2024-01-30T14:05:01;10.00;99.90
21047;DHT22;10682;50.874;3.656;2024-01-30T14:07:43;10.00;99.90
21047;DHT22;10682;50.874;3.656;2024-01-30T14:10:10;10.00;99.90
21047;DHT22;10682;50.874;3.656;2024-01-30T14:12:42;10.00;99.90
21047;DHT22;10682;50.874;3.656;2024-01-30T14:15:11;10.00;99.90
21047;DHT22;10682;50.874;3.656;2024-01-30T14:17:53;10.00;99.90
21047;DHT22;10682;50.874;3.656;2024-01-30T14:20:26;10.00;99.90
21047;DHT22;10682;50.874;3.656;2024-01-30T14:23:03;10.00;99.90
21047;DHT22;10682;50.874;3.656;2024-01-30T14:25:30;10.00;99.90
21047;DHT22;10682;50.874;3.656;2024-01-30T14:27:57;10.00;99.90
21047;DHT22;10682;50.874;3.656;2024-01-30T14:30:24;10.00;99.90
21047;DHT22;10682;50.874;3.656;2024-01-30T14:32:52;10.00;99.90
21047;DHT22;10682;50.874;3.656;2024-01-30T14:35:20;10.00;99.90
21047;DHT22;10682;50.874;3.656;2024-01-30T14:37:47;10.00;99.90
21047;DHT22;10682;50.874;3.656;2024-01-30T14:40:14;10.00;99.90
21047;DHT22;10682;50.874;3.656;2024-01-30T14:42:41;9.90;99.90
21047;DHT22;10682;50.874;3.656;2024-01-30T14:45:10;10.00;99.90
21047;DHT22;10682;50.874;3.656;2024-01-30T14:47:38;9.90;99.90
21047;DHT22;10682;50.874;3.656;2024-01-30T14:50:06;9.90;99.90
21047;DHT22;10682;50.874;3.656;2024-01-30T14:52:36;10.00;99.90
21047;DHT22;10682;50.874;3.656;2024-01-30T14:55:04;9.90;99.90
21047;DHT22;10682;50.874;3.656;2024-01-30T14:57:32;9.90;99.90
21047;DHT22;10682;50.874;3.656;2024-01-30T15:00:01;9.80;99.90
21047;DHT22;10682;50.874;3.656;2024-01-30T15:02:29;9.80;99.90
21047;DHT22;10682;50.874;3.656;2024-01-30T15:04:56;9.80;99.90
21047;DHT22;10682;50.874;3.656;2024-01-30T15:07:23;9.80;99.90
21047;DHT22;10682;50.874;3.656;2024-01-30T15:13:16;9.60;99.90
21047;DHT22;10682;50.874;3.656;2024-01-30T15:15:50;9.50;99.90
21047;DHT22;10682;50.874;3.656;2024-01-30T15:18:17;9.50;99.90
21047;DHT22;10682;50.874;3.656;2024-01-30T15:20:44;9.40;99.90
21047;DHT22;10682;50.874;3.656;2024-01-30T15:23:11;9.30;99.90
21047;DHT22;10682;50.874;3.656;2024-01-30T15:25:39;9.30;99.90
21047;DHT22;10682;50.874;3.656;2024-01-30T15:28:06;9.30;99.90
21047;DHT22;10682;50.874;3.656;2024-01-30T15:30:33;9.30;99.90
21047;DHT22;10682;50.874;3.656;2024-01-30T15:33:00;9.30;99.90
21047;DHT22;10682;50.874;3.656;2024-01-30T15:35:28;9.30;99.90
21047;DHT22;10682;50.874;3.656;2024-01-30T15:37:55;9.30;99.90
21047;DHT22;10682;50.874;3.656;2024-01-30T15:40:22;9.30;99.90
21047;DHT22;10682;50.874;3.656;2024-01-30T15:42:49;9.30;99.90
21047;DHT22;10682;50.874;3.656;2024-01-30T15:45:16;9.30;99.90
21047;DHT22;10682;50.874;3.656;2024-01-30T15:47:43;9.20;99.90
21047;DHT22;10682;50.874;3.656;2024-01-30T15:50:11;9.20;99.90
21047;DHT22;10682;50.874;3.656;2024-01-30T15:52:51;9.20;99.90
21047;DHT22;10682;50.874;3.656;2024-01-30T15:55:52;9.10;99.90
21047;DHT22;10682;50.874;3.656;2024-01-30T15:58:19;9.10;99.90
21047;DHT22;10682;50.874;3.656;2024-01-30T16:00:46;9.00;99.90
21047;DHT22;10682;50.874;3.656;2024-01-30T16:03:13;9.00;99.90
21047;DHT22;10682;50.874;3.656;2024-01-30T16:05:41;8.90;99.90
21047;DHT22;10682;50.874;3.656;2024-01-30T16:08:09;8.90;99.90
21047;DHT22;10682;50.874;3.656;2024-01-30T16:10:37;8.90;99.90
21047;DHT22;10682;50.874;3.656;2024-01-30T16:13:23;8.90;99.90
21047;DHT22;10682;50.874;3.656;2024-01-30T16:15:50;8.90;99.90